sensor_id;sensor_type;location;lat;lon;timestamp;temperature;humidity
4324;DHT22;2175;51.018;6.994;2023-02-02T00:00:48;8.10;99.90
4324;DHT22;2175;51.018;6.994;2023-02-02T00:03:14;8.20;99.90
4324;DHT22;2175;51.018;6.994;2023-02-02T00:05:48;8.20;99.90
4324;DHT22;2175;51.018;6.994;2023-02-02T00:08:18;8.20;99.90
4324;DHT22;2175;51.018;6.994;2023-02-02T00:10:44;8.20;99.90
4324;DHT22;2175;51.018;6.994;2023-02-02T00:13:11;8.20;99.90
4324;DHT22;2175;51.018;6.994;2023-02-02T00:15:37;8.30;99.90
4324;DHT22;2175;51.018;6.994;2023-02-02T00:18:03;8.30;99.90
4324;DHT22;2175;51.018;6.994;2023-02-02T00:20:29;8.20;99.90
4324;DHT22;2175;51.018;6.994;2023-02-02T00:22:55;8.20;99.90
4324;DHT22;2175;51.018;6.994;2023-02-02T00:25:22;8.20;99.90
4324;DHT22;2175;51.018;6.994;2023-02-02T00:27:47;8.20;99.90
4324;DHT22;2175;51.018;6.994;2023-02-02T00:30:13;8.10;99.90
4324;DHT22;2175;51.018;6.994;2023-02-02T00:32:39;8.20;99.90
4324;DHT22;2175;51.018;6.994;2023-02-02T00:35:06;8.20;99.90
4324;DHT22;2175;51.018;6.994;2023-02-02T00:37:32;8.20;99.90
4324;DHT22;2175;51.018;6.994;2023-02-02T00:39:58;8.10;99.90
4324;DHT22;2175;51.018;6.994;2023-02-02T00:42:23;8.10;99.90
4324;DHT22;2175;51.018;6.994;2023-02-02T00:44:49;8.20;99.90
4324;DHT22;2175;51.018;6.994;2023-02-02T00:47:36;8.20;99.90
4324;DHT22;2175;51.018;6.994;2023-02-02T00:50:02;8.30;99.90
4324;DHT22;2175;51.018;6.994;2023-02-02T00:52:28;8.30;99.90
4324;DHT22;2175;51.018;6.994;2023-02-02T00:54:54;8.10;99.90
4324;DHT22;2175;51.018;6.994;2023-02-02T00:57:19;8.10;99.90
4324;DHT22;2175;51.018;6.994;2023-02-02T00:59:45;8.10;99.90
4324;DHT22;2175;51.018;6.994;2023-02-02T01:02:11;8.20;99.90
4324;DHT22;2175;51.018;6.994;2023-02-02T01:04:37;8.20;99.90
4324;DHT22;2175;51.018;6.994;2023-02-02T01:07:03;8.30;99.90
4324;DHT22;2175;51.018;6.994;2023-02-02T01:09:28;8.20;99.90
4324;DHT22;2175;51.018;6.994;2023-02-02T01:11:54;8.20;99.90
4324;DHT22;2175;51.018;6.994;2023-02-02T01:14:20;8.30;99.90
4324;DHT22;2175;51.018;6.994;2023-02-02T01:16:46;8.20;99.90
4324;DHT22;2175;51.018;6.994;2023-02-02T01:19:13;8.10;99.90
4324;DHT22;2175;51.018;6.994;2023-02-02T01:21:39;8.20;99.90
4324;DHT22;2175;51.018;6.994;2023-02-02T01:24:04;8.20;99.90
4324;DHT22;2175;51.018;6.994;2023-02-02T01:26:30;8.20;99.90
4324;DHT22;2175;51.018;6.994;2023-02-02T01:28:56;8.10;99.90
4324;DHT22;2175;51.018;6.994;2023-02-02T01:31:22;8.10;99.90
4324;DHT22;2175;51.018;6.994;2023-02-02T01:33:49;8.20;99.90
4324;DHT22;2175;51.018;6.994;2023-02-02T01:36:20;8.20;99.90
4324;DHT22;2175;51.018;6.994;2023-02-02T01:38:46;8.20;99.90
4324;DHT22;2175;51.018;6.994;2023-02-02T01:41:15;8.20;99.90
4324;DHT22;2175;51.018;6.994;2023-02-02T01:48:45;8.00;99.90
4324;DHT22;2175;51.018;6.994;2023-02-02T01:51:15;8.00;99.90
4324;DHT22;2175;51.018;6.994;2023-02-02T01:53:43;8.00;99.90
4324;DHT22;2175;51.018;6.994;2023-02-02T01:56:11;7.90;99.90
4324;DHT22;2175;51.018;6.994;2023-02-02T01:58:40;7.90;99.90
4324;DHT22;2175;51.018;6.994;2023-02-02T02:01:07;7.90;99.90
4324;DHT22;2175;51.018;6.994;2023-02-02T02:03:35;7.90;99.90
4324;DHT22;2175;51.018;6.994;2023-02-02T02:06:10;7.90;99.90
4324;DHT22;2175;51.018;6.994;2023-02-02T02:08:51;7.90;99.90
4324;DHT22;2175;51.018;6.994;2023-02-02T02:11:22;7.90;99.90
4324;DHT22;2175;51.018;6.994;2023-02-02T02:13:48;8.00;99.90
4324;DHT22;2175;51.018;6.994;2023-02-02T02:17:03;7.90;99.90
4324;DHT22;2175;51.018;6.994;2023-02-02T02:37:48;8.00;99.90
4324;DHT22;2175;51.018;6.994;2023-02-02T02:40:19;8.00;99.90
4324;DHT22;2175;51.018;6.994;2023-02-02T02:42:51;7.90;99.90
4324;DHT22;2175;51.018;6.994;2023-02-02T02:45:19;7.90;99.90
4324;DHT22;2175;51.018;6.994;2023-02-02T02:47:46;8.00;99.90
4324;DHT22;2175;51.018;6.994;2023-02-02T02:50:13;8.00;99.90
4324;DHT22;2175;51.018;6.994;2023-02-02T02:52:39;7.90;99.90
4324;DHT22;2175;51.018;6.994;2023-02-02T02:55:06;8.00;99.90
4324;DHT22;2175;51.018;6.994;2023-02-02T02:58:01;8.00;99.90
4324;DHT22;2175;51.018;6.994;2023-02-02T03:00:54;7.90;99.90
4324;DHT22;2175;51.018;6.994;2023-02-02T03:06:18;7.90;99.90
4324;DHT22;2175;51.018;6.994;2023-02-02T03:11:14;7.90;99.90
4324;DHT22;2175;51.018;6.994;2023-02-02T03:13:42;7.90;99.90
4324;DHT22;2175;51.018;6.994;2023-02-02T03:16:09;7.80;99.90
4324;DHT22;2175;51.018;6.994;2023-02-02T03:18:35;7.90;99.90
4324;DHT22;2175;51.018;6.994;2023-02-02T03:21:00;7.80;99.90
4324;DHT22;2175;51.018;6.994;2023-02-02T03:23:26;7.80;99.90
4324;DHT22;2175;51.018;6.994;2023-02-02T03:25:53;7.80;99.90
4324;DHT22;2175;51.018;6.994;2023-02-02T03:28:20;7.80;99.90
4324;DHT22;2175;51.018;6.994;2023-02-02T03:30:47;7.80;99.90
4324;DHT22;2175;51.018;6.994;2023-02-02T03:33:13;7.90;99.90
4324;DHT22;2175;51.018;6.994;2023-02-02T03:35:40;7.80;99.90
4324;DHT22;2175;51.018;6.994;2023-02-02T03:38:05;7.70;99.90
4324;DHT22;2175;51.018;6.994;2023-02-02T03:40:31;7.70;99.90
4324;DHT22;2175;51.018;6.994;2023-02-02T03:42:57;7.60;99.90
4324;DHT22;2175;51.018;6.994;2023-02-02T03:45:25;7.70;99.90
4324;DHT22;2175;51.018;6.994;2023-02-02T03:47:51;7.60;99.90
4324;DHT22;2175;51.018;6.994;2023-02-02T03:50:17;7.70;99.90
4324;DHT22;2175;51.018;6.994;2023-02-02T03:52:42;7.70;99.90
4324;DHT22;2175;51.018;6.994;2023-02-02T03:55:08;7.60;99.90
4324;DHT22;2175;51.018;6.994;2023-02-02T03:57:34;7.60;99.90
4324;DHT22;2175;51.018;6.994;2023-02-02T03:59:59;7.70;99.90
4324;DHT22;2175;51.018;6.994;2023-02-02T04:02:25;7.60;99.90
4324;DHT22;2175;51.018;6.994;2023-02-02T04:04:50;7.50;99.90
4324;DHT22;2175;51.018;6.994;2023-02-02T04:07:16;7.60;99.90
4324;DHT22;2175;51.018;6.994;2023-02-02T04:09:42;7.50;99.90
4324;DHT22;2175;51.018;6.994;2023-02-02T04:12:07;7.40;99.90
4324;DHT22;2175;51.018;6.994;2023-02-02T04:14:33;7.40;99.90
4324;DHT22;2175;51.018;6.994;2023-02-02T04:16:58;7.30;99.90
4324;DHT22;2175;51.018;6.994;2023-02-02T04:19:24;7.30;99.90
4324;DHT22;2175;51.018;6.994;2023-02-02T04:21:49;7.30;99.90
4324;DHT22;2175;51.018;6.994;2023-02-02T04:24:15;7.30;99.90
4324;DHT22;2175;51.018;6.994;2023-02-02T04:26:41;7.30;99.90
4324;DHT22;2175;51.018;6.994;2023-02-02T04:29:07;7.20;99.90
4324;DHT22;2175;51.018;6.994;2023-02-02T04:31:32;7.20;99.90
4324;DHT22;2175;51.018;6.994;2023-02-02T04:33:58;7.20;99.90
4324;DHT22;2175;51.018;6.994;2023-02-02T04:36:25;7.30;99.90
4324;DHT22;2175;51.018;6.994;2023-02-02T04:38:54;7.30;99.90
4324;DHT22;2175;51.018;6.994;2023-02-02T04:41:20;7.30;99.90
4324;DHT22;2175;51.018;6.994;2023-02-02T04:43:46;7.30;99.90
4324;DHT22;2175;51.018;6.994;2023-02-02T04:46:13;7.30;99.90
4324;DHT22;2175;51.018;6.994;2023-02-02T04:48:39;7.30;99.90
4324;DHT22;2175;51.018;6.994;2023-02-02T04:51:09;7.30;99.90
4324;DHT22;2175;51.018;6.994;2023-02-02T04:53:35;7.30;99.90
4324;DHT22;2175;51.018;6.994;2023-02-02T04:56:05;7.30;99.90
4324;DHT22;2175;51.018;6.994;2023-02-02T04:58:31;7.30;99.90
4324;DHT22;2175;51.018;6.994;2023-02-02T05:00:57;7.40;99.90
4324;DHT22;2175;51.018;6.994;2023-02-02T05:03:23;7.40;99.90
4324;DHT22;2175;51.018;6.994;2023-02-02T05:05:48;7.40;99.90
4324;DHT22;2175;51.018;6.994;2023-02-02T05:08:14;7.40;99.90
4324;DHT22;2175;51.018;6.994;2023-02-02T05:10:40;7.40;99.90
4324;DHT22;2175;51.018;6.994;2023-02-02T05:13:06;7.40;99.90
4324;DHT22;2175;51.018;6.994;2023-02-02T05:15:32;7.40;99.90
4324;DHT22;2175;51.018;6.994;2023-02-02T05:17:58;7.40;99.90
4324;DHT22;2175;51.018;6.994;2023-02-02T05:20:24;7.50;99.90
4324;DHT22;2175;51.018;6.994;2023-02-02T05:22:49;7.40;99.90
4324;DHT22;2175;51.018;6.994;2023-02-02T05:25:15;7.40;99.90
4324;DHT22;2175;51.018;6.994;2023-02-02T05:27:45;7.40;99.90
4324;DHT22;2175;51.018;6.994;2023-02-02T05:30:12;7.40;99.90
4324;DHT22;2175;51.018;6.994;2023-02-02T05:32:38;7.40;99.90
4324;DHT22;2175;51.018;6.994;2023-02-02T05:35:04;7.40;99.90
4324;DHT22;2175;51.018;6.994;2023-02-02T05:37:30;7.30;99.90
4324;DHT22;2175;51.018;6.994;2023-02-02T05:39:55;7.40;99.90
4324;DHT22;2175;51.018;6.994;2023-02-02T05:42:21;7.30;99.90
4324;DHT22;2175;51.018;6.994;2023-02-02T05:44:47;7.30;99.90
4324;DHT22;2175;51.018;6.994;2023-02-02T05:47:12;7.30;99.90
4324;DHT22;2175;51.018;6.994;2023-02-02T05:49:38;7.30;99.90
4324;DHT22;2175;51.018;6.994;2023-02-02T05:52:04;7.30;99.90
4324;DHT22;2175;51.018;6.994;2023-02-02T05:54:30;7.30;99.90
4324;DHT22;2175;51.018;6.994;2023-02-02T05:56:55;7.30;99.90
4324;DHT22;2175;51.018;6.994;2023-02-02T05:59:21;7.30;99.90
4324;DHT22;2175;51.018;6.994;2023-02-02T06:01:48;7.30;99.90
4324;DHT22;2175;51.018;6.994;2023-02-02T06:04:14;7.30;99.90
4324;DHT22;2175;51.018;6.994;2023-02-02T06:06:40;7.30;99.90
4324;DHT22;2175;51.018;6.994;2023-02-02T06:09:07;7.30;99.90
4324;DHT22;2175;51.018;6.994;2023-02-02T06:11:33;7.30;99.90
4324;DHT22;2175;51.018;6.994;2023-02-02T06:13:59;7.40;99.90
4324;DHT22;2175;51.018;6.994;2023-02-02T06:16:24;7.40;99.90
4324;DHT22;2175;51.018;6.994;2023-02-02T06:18:50;7.50;99.90
4324;DHT22;2175;51.018;6.994;2023-02-02T06:21:16;7.50;99.90
4324;DHT22;2175;51.018;6.994;2023-02-02T06:23:44;7.60;99.90
4324;DHT22;2175;51.018;6.994;2023-02-02T06:26:14;7.50;99.90
4324;DHT22;2175;51.018;6.994;2023-02-02T06:28:40;7.60;99.90
4324;DHT22;2175;51.018;6.994;2023-02-02T06:31:08;7.60;99.90
4324;DHT22;2175;51.018;6.994;2023-02-02T06:33:34;7.60;99.90
4324;DHT22;2175;51.018;6.994;2023-02-02T06:36:01;7.60;99.90
4324;DHT22;2175;51.018;6.994;2023-02-02T06:38:27;7.60;99.90
4324;DHT22;2175;51.018;6.994;2023-02-02T06:40:53;7.60;99.90
4324;DHT22;2175;51.018;6.994;2023-02-02T06:43:18;7.60;99.90
4324;DHT22;2175;51.018;6.994;2023-02-02T06:45:44;7.60;99.90
4324;DHT22;2175;51.018;6.994;2023-02-02T06:48:11;7.60;99.90
4324;DHT22;2175;51.018;6.994;2023-02-02T06:50:38;7.50;99.90
4324;DHT22;2175;51.018;6.994;2023-02-02T06:53:04;7.50;99.90
4324;DHT22;2175;51.018;6.994;2023-02-02T06:55:30;7.50;99.90
4324;DHT22;2175;51.018;6.994;2023-02-02T06:57:57;7.50;99.90
4324;DHT22;2175;51.018;6.994;2023-02-02T07:00:23;7.50;99.90
4324;DHT22;2175;51.018;6.994;2023-02-02T07:02:49;7.40;99.90
4324;DHT22;2175;51.018;6.994;2023-02-02T07:05:15;7.50;99.90
4324;DHT22;2175;51.018;6.994;2023-02-02T07:07:44;7.40;99.90
4324;DHT22;2175;51.018;6.994;2023-02-02T07:10:10;7.40;99.90
4324;DHT22;2175;51.018;6.994;2023-02-02T07:12:36;7.40;99.90
4324;DHT22;2175;51.018;6.994;2023-02-02T07:15:03;7.40;99.90
4324;DHT22;2175;51.018;6.994;2023-02-02T07:17:28;7.40;99.90
4324;DHT22;2175;51.018;6.994;2023-02-02T07:19:54;7.50;99.90
4324;DHT22;2175;51.018;6.994;2023-02-02T07:22:22;7.40;99.90
4324;DHT22;2175;51.018;6.994;2023-02-02T07:24:48;7.50;99.90
4324;DHT22;2175;51.018;6.994;2023-02-02T07:27:15;7.50;99.90
4324;DHT22;2175;51.018;6.994;2023-02-02T07:29:40;7.40;99.90
4324;DHT22;2175;51.018;6.994;2023-02-02T07:32:06;7.40;99.90
4324;DHT22;2175;51.018;6.994;2023-02-02T07:34:31;7.40;99.90
4324;DHT22;2175;51.018;6.994;2023-02-02T07:36:57;7.50;99.90
4324;DHT22;2175;51.018;6.994;2023-02-02T07:39:22;7.40;99.90
4324;DHT22;2175;51.018;6.994;2023-02-02T07:41:48;7.50;99.90
4324;DHT22;2175;51.018;6.994;2023-02-02T07:44:14;7.40;99.90
4324;DHT22;2175;51.018;6.994;2023-02-02T07:46:42;7.40;99.90
4324;DHT22;2175;51.018;6.994;2023-02-02T07:49:14;7.50;99.90
4324;DHT22;2175;51.018;6.994;2023-02-02T07:51:40;7.40;99.90
4324;DHT22;2175;51.018;6.994;2023-02-02T07:54:06;7.50;99.90
4324;DHT22;2175;51.018;6.994;2023-02-02T07:56:32;7.50;99.90
4324;DHT22;2175;51.018;6.994;2023-02-02T07:58:57;7.50;99.90
4324;DHT22;2175;51.018;6.994;2023-02-02T08:01:24;7.40;99.90
4324;DHT22;2175;51.018;6.994;2023-02-02T08:03:51;7.40;99.90
4324;DHT22;2175;51.018;6.994;2023-02-02T08:06:20;7.50;99.90
4324;DHT22;2175;51.018;6.994;2023-02-02T08:08:46;7.60;99.90
4324;DHT22;2175;51.018;6.994;2023-02-02T08:11:14;7.50;99.90
4324;DHT22;2175;51.018;6.994;2023-02-02T08:13:41;7.50;99.90
4324;DHT22;2175;51.018;6.994;2023-02-02T08:16:07;7.50;99.90
4324;DHT22;2175;51.018;6.994;2023-02-02T08:18:34;7.50;99.90
4324;DHT22;2175;51.018;6.994;2023-02-02T08:21:01;7.50;99.90
4324;DHT22;2175;51.018;6.994;2023-02-02T08:23:27;7.50;99.90
4324;DHT22;2175;51.018;6.994;2023-02-02T08:25:54;7.60;99.90
4324;DHT22;2175;51.018;6.994;2023-02-02T08:28:29;7.60;99.90
4324;DHT22;2175;51.018;6.994;2023-02-02T08:30:54;7.60;99.90
4324;DHT22;2175;51.018;6.994;2023-02-02T08:33:20;7.60;99.90
4324;DHT22;2175;51.018;6.994;2023-02-02T08:35:46;7.60;99.90
4324;DHT22;2175;51.018;6.994;2023-02-02T08:38:11;7.60;99.90
4324;DHT22;2175;51.018;6.994;2023-02-02T08:40:37;7.60;99.90
4324;DHT22;2175;51.018;6.994;2023-02-02T08:43:03;7.50;99.90
4324;DHT22;2175;51.018;6.994;2023-02-02T08:45:29;7.60;99.90
4324;DHT22;2175;51.018;6.994;2023-02-02T08:47:55;7.60;99.90
4324;DHT22;2175;51.018;6.994;2023-02-02T08:50:20;7.50;99.90
4324;DHT22;2175;51.018;6.994;2023-02-02T08:52:46;7.70;99.90
4324;DHT22;2175;51.018;6.994;2023-02-02T08:55:11;7.60;99.90
4324;DHT22;2175;51.018;6.994;2023-02-02T08:57:38;7.60;99.90
4324;DHT22;2175;51.018;6.994;2023-02-02T09:00:05;7.70;99.90
4324;DHT22;2175;51.018;6.994;2023-02-02T09:02:31;7.60;99.90
4324;DHT22;2175;51.018;6.994;2023-02-02T09:04:57;7.60;99.90
4324;DHT22;2175;51.018;6.994;2023-02-02T09:07:22;7.70;99.90
4324;DHT22;2175;51.018;6.994;2023-02-02T09:09:48;7.70;99.90
4324;DHT22;2175;51.018;6.994;2023-02-02T09:12:15;7.70;99.90
4324;DHT22;2175;51.018;6.994;2023-02-02T09:14:40;7.70;99.90
4324;DHT22;2175;51.018;6.994;2023-02-02T09:17:06;7.70;99.90
4324;DHT22;2175;51.018;6.994;2023-02-02T09:19:31;7.80;99.90
4324;DHT22;2175;51.018;6.994;2023-02-02T09:21:57;7.80;99.90
4324;DHT22;2175;51.018;6.994;2023-02-02T09:24:23;7.90;99.90
4324;DHT22;2175;51.018;6.994;2023-02-02T09:26:48;7.80;99.90
4324;DHT22;2175;51.018;6.994;2023-02-02T09:29:15;7.90;99.90
4324;DHT22;2175;51.018;6.994;2023-02-02T09:31:42;7.80;99.90
4324;DHT22;2175;51.018;6.994;2023-02-02T09:34:10;7.80;99.90
4324;DHT22;2175;51.018;6.994;2023-02-02T09:36:37;7.90;99.90
4324;DHT22;2175;51.018;6.994;2023-02-02T09:39:04;7.90;99.90
4324;DHT22;2175;51.018;6.994;2023-02-02T09:53:03;7.70;99.90
4324;DHT22;2175;51.018;6.994;2023-02-02T09:55:42;7.80;99.90
4324;DHT22;2175;51.018;6.994;2023-02-02T09:58:18;7.80;99.90
4324;DHT22;2175;51.018;6.994;2023-02-02T10:01:21;7.80;99.90
4324;DHT22;2175;51.018;6.994;2023-02-02T10:06:34;7.80;99.90
4324;DHT22;2175;51.018;6.994;2023-02-02T10:12:33;7.70;99.90
4324;DHT22;2175;51.018;6.994;2023-02-02T10:15:17;7.80;99.90
4324;DHT22;2175;51.018;6.994;2023-02-02T10:17:51;7.80;99.90
4324;DHT22;2175;51.018;6.994;2023-02-02T10:20:32;7.80;99.90
4324;DHT22;2175;51.018;6.994;2023-02-02T10:23:31;7.80;99.90
4324;DHT22;2175;51.018;6.994;2023-02-02T10:26:21;7.80;99.90
4324;DHT22;2175;51.018;6.994;2023-02-02T10:31:43;7.80;99.90
4324;DHT22;2175;51.018;6.994;2023-02-02T10:39:42;7.90;99.90
4324;DHT22;2175;51.018;6.994;2023-02-02T10:45:42;7.90;99.90
4324;DHT22;2175;51.018;6.994;2023-02-02T10:48:17;8.00;99.90
4324;DHT22;2175;51.018;6.994;2023-02-02T10:50:48;8.10;99.90
4324;DHT22;2175;51.018;6.994;2023-02-02T10:53:15;8.10;99.90
4324;DHT22;2175;51.018;6.994;2023-02-02T10:56:01;8.20;99.90
4324;DHT22;2175;51.018;6.994;2023-02-02T10:58:45;8.20;99.90
4324;DHT22;2175;51.018;6.994;2023-02-02T11:01:14;8.20;99.90
4324;DHT22;2175;51.018;6.994;2023-02-02T11:03:42;8.20;99.90
4324;DHT22;2175;51.018;6.994;2023-02-02T11:06:10;8.20;99.90
4324;DHT22;2175;51.018;6.994;2023-02-02T11:08:57;8.20;99.90
4324;DHT22;2175;51.018;6.994;2023-02-02T11:11:37;8.30;99.90
4324;DHT22;2175;51.018;6.994;2023-02-02T11:16:33;8.30;99.90
4324;DHT22;2175;51.018;6.994;2023-02-02T11:18:59;8.30;99.90
4324;DHT22;2175;51.018;6.994;2023-02-02T11:21:28;8.40;99.90
4324;DHT22;2175;51.018;6.994;2023-02-02T11:27:22;8.30;99.90
4324;DHT22;2175;51.018;6.994;2023-02-02T11:35:14;8.50;99.90
4324;DHT22;2175;51.018;6.994;2023-02-02T11:38:05;8.50;99.90
4324;DHT22;2175;51.018;6.994;2023-02-02T11:40:36;8.40;99.90
4324;DHT22;2175;51.018;6.994;2023-02-02T11:45:54;8.40;99.90
4324;DHT22;2175;51.018;6.994;2023-02-02T11:48:26;8.50;99.90
4324;DHT22;2175;51.018;6.994;2023-02-02T11:50:54;8.60;99.90
4324;DHT22;2175;51.018;6.994;2023-02-02T11:53:33;8.60;99.90
4324;DHT22;2175;51.018;6.994;2023-02-02T11:56:06;8.60;99.90
4324;DHT22;2175;51.018;6.994;2023-02-02T11:58:43;8.60;99.90
4324;DHT22;2175;51.018;6.994;2023-02-02T12:03:47;8.70;99.90
4324;DHT22;2175;51.018;6.994;2023-02-02T12:06:34;8.70;99.90
4324;DHT22;2175;51.018;6.994;2023-02-02T12:09:14;8.70;99.90
4324;DHT22;2175;51.018;6.994;2023-02-02T12:12:02;8.80;99.90
4324;DHT22;2175;51.018;6.994;2023-02-02T12:14:36;8.90;99.90
4324;DHT22;2175;51.018;6.994;2023-02-02T12:27:56;9.00;99.90
4324;DHT22;2175;51.018;6.994;2023-02-02T12:30:41;9.10;99.90
4324;DHT22;2175;51.018;6.994;2023-02-02T12:39:16;9.30;99.90
4324;DHT22;2175;51.018;6.994;2023-02-02T12:47:41;9.20;99.90
4324;DHT22;2175;51.018;6.994;2023-02-02T12:50:30;9.30;99.90
4324;DHT22;2175;51.018;6.994;2023-02-02T12:56:14;9.30;99.90
4324;DHT22;2175;51.018;6.994;2023-02-02T12:59:03;9.30;99.90
4324;DHT22;2175;51.018;6.994;2023-02-02T13:07:22;9.30;99.90
4324;DHT22;2175;51.018;6.994;2023-02-02T13:12:24;9.30;99.90
4324;DHT22;2175;51.018;6.994;2023-02-02T13:15:01;9.30;99.90
4324;DHT22;2175;51.018;6.994;2023-02-02T13:17:46;9.30;99.90
4324;DHT22;2175;51.018;6.994;2023-02-02T13:20:22;9.40;99.90
4324;DHT22;2175;51.018;6.994;2023-02-02T13:22:58;9.50;99.90
4324;DHT22;2175;51.018;6.994;2023-02-02T13:25:30;9.50;99.90
4324;DHT22;2175;51.018;6.994;2023-02-02T13:27:59;9.40;99.90
4324;DHT22;2175;51.018;6.994;2023-02-02T13:30:30;9.40;99.90
4324;DHT22;2175;51.018;6.994;2023-02-02T13:35:45;9.50;99.90
4324;DHT22;2175;51.018;6.994;2023-02-02T13:38:19;9.50;99.90
4324;DHT22;2175;51.018;6.994;2023-02-02T13:40:46;9.50;99.90
4324;DHT22;2175;51.018;6.994;2023-02-02T13:44:07;9.50;99.90
4324;DHT22;2175;51.018;6.994;2023-02-02T13:49:01;9.50;99.90
4324;DHT22;2175;51.018;6.994;2023-02-02T13:55:33;9.40;99.90
4324;DHT22;2175;51.018;6.994;2023-02-02T14:00:34;9.10;99.90
4324;DHT22;2175;51.018;6.994;2023-02-02T14:03:04;9.10;99.90
4324;DHT22;2175;51.018;6.994;2023-02-02T14:05:37;9.20;99.90
4324;DHT22;2175;51.018;6.994;2023-02-02T14:08:21;9.20;99.90
4324;DHT22;2175;51.018;6.994;2023-02-02T14:13:23;9.30;99.90
4324;DHT22;2175;51.018;6.994;2023-02-02T14:16:20;9.30;99.90
4324;DHT22;2175;51.018;6.994;2023-02-02T14:26:48;9.30;99.90
4324;DHT22;2175;51.018;6.994;2023-02-02T14:31:59;9.30;99.90
4324;DHT22;2175;51.018;6.994;2023-02-02T14:34:35;9.30;99.90
4324;DHT22;2175;51.018;6.994;2023-02-02T14:45:38;9.40;99.90
4324;DHT22;2175;51.018;6.994;2023-02-02T14:48:07;9.50;99.90
4324;DHT22;2175;51.018;6.994;2023-02-02T14:53:06;9.40;99.90
4324;DHT22;2175;51.018;6.994;2023-02-02T15:17:23;9.40;99.90
4324;DHT22;2175;51.018;6.994;2023-02-02T15:22:31;9.40;99.90
4324;DHT22;2175;51.018;6.994;2023-02-02T15:25:02;9.30;99.90
4324;DHT22;2175;51.018;6.994;2023-02-02T15:27:30;9.30;99.90
4324;DHT22;2175;51.018;6.994;2023-02-02T15:30:00;9.30;99.90
4324;DHT22;2175;51.018;6.994;2023-02-02T15:32:29;9.30;99.90
4324;DHT22;2175;51.018;6.994;2023-02-02T15:35:00;9.40;99.90
4324;DHT22;2175;51.018;6.994;2023-02-02T15:37:31;9.40;99.90
4324;DHT22;2175;51.018;6.994;2023-02-02T15:40:19;9.40;99.90
4324;DHT22;2175;51.018;6.994;2023-02-02T15:42:50;9.30;99.90
4324;DHT22;2175;51.018;6.994;2023-02-02T15:48:29;9.40;99.90
4324;DHT22;2175;51.018;6.994;2023-02-02T15:51:02;9.40;99.90
4324;DHT22;2175;51.018;6.994;2023-02-02T15:53:48;9.40;99.90
4324;DHT22;2175;51.018;6.994;2023-02-02T15:58:52;9.40;99.90
4324;DHT22;2175;51.018;6.994;2023-02-02T16:01:20;9.40;99.90
4324;DHT22;2175;51.018;6.994;2023-02-02T16:04:21;9.40;99.90
4324;DHT22;2175;51.018;6.994;2023-02-02T16:06:49;9.40;99.90
4324;DHT22;2175;51.018;6.994;2023-02-02T16:09:26;9.30;99.90
4324;DHT22;2175;51.018;6.994;2023-02-02T16:11:53;9.30;99.90
4324;DHT22;2175;51.018;6.994;2023-02-02T16:14:19;9.30;99.90
4324;DHT22;2175;51.018;6.994;2023-02-02T16:16:45;9.40;99.90
4324;DHT22;2175;51.018;6.994;2023-02-02T16:19:24;9.30;99.90
4324;DHT22;2175;51.018;6.994;2023-02-02T16:22:08;9.40;99.90
4324;DHT22;2175;51.018;6.994;2023-02-02T16:24:38;9.50;99.90
4324;DHT22;2175;51.018;6.994;2023-02-02T16:27:06;9.50;99.90
4324;DHT22;2175;51.018;6.994;2023-02-02T16:29:33;9.50;99.90
4324;DHT22;2175;51.018;6.994;2023-02-02T16:31:59;9.50;99.90
4324;DHT22;2175;51.018;6.994;2023-02-02T16:37:12;9.50;99.90
4324;DHT22;2175;51.018;6.994;2023-02-02T16:39:39;9.50;99.90
4324;DHT22;2175;51.018;6.994;2023-02-02T16:42:27;9.50;99.90
4324;DHT22;2175;51.018;6.994;2023-02-02T16:44:55;9.50;99.90
4324;DHT22;2175;51.018;6.994;2023-02-02T16:49:51;9.60;99.90
4324;DHT22;2175;51.018;6.994;2023-02-02T16:52:18;9.60;99.90
4324;DHT22;2175;51.018;6.994;2023-02-02T16:54:53;9.60;99.90
4324;DHT22;2175;51.018;6.994;2023-02-02T16:57:23;9.50;99.90
4324;DHT22;2175;51.018;6.994;2023-02-02T16:59:55;9.50;99.90
4324;DHT22;2175;51.018;6.994;2023-02-02T17:02:28;9.50;99.90
4324;DHT22;2175;51.018;6.994;2023-02-02T17:05:17;9.60;99.90
4324;DHT22;2175;51.018;6.994;2023-02-02T17:07:49;9.40;99.90
4324;DHT22;2175;51.018;6.994;2023-02-02T17:12:43;9.10;99.90
4324;DHT22;2175;51.018;6.994;2023-02-02T17:17:41;9.10;99.90
4324;DHT22;2175;51.018;6.994;2023-02-02T17:20:07;9.10;99.90
4324;DHT22;2175;51.018;6.994;2023-02-02T17:22:38;9.10;99.90
4324;DHT22;2175;51.018;6.994;2023-02-02T17:25:05;9.10;99.90
4324;DHT22;2175;51.018;6.994;2023-02-02T17:27:32;9.00;99.90
4324;DHT22;2175;51.018;6.994;2023-02-02T17:30:00;8.90;99.90
4324;DHT22;2175;51.018;6.994;2023-02-02T17:32:26;8.90;99.90
4324;DHT22;2175;51.018;6.994;2023-02-02T17:34:52;8.90;99.90
4324;DHT22;2175;51.018;6.994;2023-02-02T17:37:17;8.90;99.90
4324;DHT22;2175;51.018;6.994;2023-02-02T17:39:43;8.80;99.90
4324;DHT22;2175;51.018;6.994;2023-02-02T17:42:23;8.80;99.90
4324;DHT22;2175;51.018;6.994;2023-02-02T17:44:49;8.80;99.90
4324;DHT22;2175;51.018;6.994;2023-02-02T17:47:15;8.80;99.90
4324;DHT22;2175;51.018;6.994;2023-02-02T17:49:40;8.80;99.90
4324;DHT22;2175;51.018;6.994;2023-02-02T17:52:07;8.80;99.90
4324;DHT22;2175;51.018;6.994;2023-02-02T17:54:33;8.90;99.90
4324;DHT22;2175;51.018;6.994;2023-02-02T17:56:59;8.80;99.90
4324;DHT22;2175;51.018;6.994;2023-02-02T17:59:24;8.70;99.90
4324;DHT22;2175;51.018;6.994;2023-02-02T18:01:50;8.70;99.90
4324;DHT22;2175;51.018;6.994;2023-02-02T18:04:16;8.70;99.90
4324;DHT22;2175;51.018;6.994;2023-02-02T18:06:42;8.70;99.90
4324;DHT22;2175;51.018;6.994;2023-02-02T18:09:08;8.70;99.90
4324;DHT22;2175;51.018;6.994;2023-02-02T18:11:33;8.60;99.90
4324;DHT22;2175;51.018;6.994;2023-02-02T18:13:59;8.60;99.90
4324;DHT22;2175;51.018;6.994;2023-02-02T18:16:25;8.60;99.90
4324;DHT22;2175;51.018;6.994;2023-02-02T18:18:50;8.60;99.90
4324;DHT22;2175;51.018;6.994;2023-02-02T18:21:16;8.50;99.90
4324;DHT22;2175;51.018;6.994;2023-02-02T18:23:42;8.40;99.90
4324;DHT22;2175;51.018;6.994;2023-02-02T18:26:13;8.30;99.90
4324;DHT22;2175;51.018;6.994;2023-02-02T18:28:39;8.20;99.90
4324;DHT22;2175;51.018;6.994;2023-02-02T18:31:09;8.20;99.90
4324;DHT22;2175;51.018;6.994;2023-02-02T18:33:35;8.20;99.90
4324;DHT22;2175;51.018;6.994;2023-02-02T18:36:06;8.10;99.90
4324;DHT22;2175;51.018;6.994;2023-02-02T18:38:31;8.10;99.90
4324;DHT22;2175;51.018;6.994;2023-02-02T18:40:57;8.20;99.90
4324;DHT22;2175;51.018;6.994;2023-02-02T18:43:23;8.20;99.90
4324;DHT22;2175;51.018;6.994;2023-02-02T18:46:03;8.10;99.90
4324;DHT22;2175;51.018;6.994;2023-02-02T18:48:29;8.20;99.90
4324;DHT22;2175;51.018;6.994;2023-02-02T18:50:55;8.20;99.90
4324;DHT22;2175;51.018;6.994;2023-02-02T18:53:21;8.20;99.90
4324;DHT22;2175;51.018;6.994;2023-02-02T18:55:46;8.20;99.90
4324;DHT22;2175;51.018;6.994;2023-02-02T18:58:12;8.20;99.90
4324;DHT22;2175;51.018;6.994;2023-02-02T19:00:42;8.20;99.90
4324;DHT22;2175;51.018;6.994;2023-02-02T19:03:08;8.20;99.90
4324;DHT22;2175;51.018;6.994;2023-02-02T19:05:34;8.20;99.90
4324;DHT22;2175;51.018;6.994;2023-02-02T19:08:18;8.20;99.90
4324;DHT22;2175;51.018;6.994;2023-02-02T19:10:44;8.30;99.90
4324;DHT22;2175;51.018;6.994;2023-02-02T19:13:19;8.30;99.90
4324;DHT22;2175;51.018;6.994;2023-02-02T19:15:48;8.20;99.90
4324;DHT22;2175;51.018;6.994;2023-02-02T19:18:19;8.30;99.90
4324;DHT22;2175;51.018;6.994;2023-02-02T19:20:45;8.30;99.90
4324;DHT22;2175;51.018;6.994;2023-02-02T19:23:17;8.40;99.90
4324;DHT22;2175;51.018;6.994;2023-02-02T19:25:47;8.40;99.90
4324;DHT22;2175;51.018;6.994;2023-02-02T19:28:27;8.50;99.90
4324;DHT22;2175;51.018;6.994;2023-02-02T19:30:56;8.50;99.90
4324;DHT22;2175;51.018;6.994;2023-02-02T19:33:38;8.50;99.90
4324;DHT22;2175;51.018;6.994;2023-02-02T19:36:11;8.50;99.90